createdAt,value
2022-10-19T00:02:23.759Z,149.48
2022-10-19T00:04:50.401Z,151.95
2022-10-19T00:07:16.981Z,149.65
2022-10-19T00:09:44.678Z,146.60
2022-10-19T00:12:13.021Z,156.13
2022-10-19T00:14:39.707Z,151.80
2022-10-19T00:17:06.368Z,154.48
2022-10-19T00:19:33.124Z,152.60
2022-10-19T00:21:59.783Z,152.38
2022-10-19T00:24:26.394Z,146.15
2022-10-19T00:26:53.035Z,153.65
2022-10-19T00:29:19.810Z,149.82
2022-10-19T00:31:46.447Z,151.38
2022-10-19T00:34:13.112Z,152.43
2022-10-19T00:36:41.431Z,150.38
2022-10-19T00:39:13.777Z,153.63
2022-10-19T00:41:41.818Z,146.10
2022-10-19T00:44:11.362Z,146.25
2022-10-19T00:46:46.402Z,155.48
2022-10-19T00:49:20.472Z,150.10
2022-10-19T00:51:58.295Z,152.15
2022-10-19T00:56:54.974Z,146.15
2022-10-19T00:59:25.160Z,147.25
2022-10-19T01:01:53.102Z,153.85
2022-10-19T01:04:24.679Z,145.77
2022-10-19T01:06:52.456Z,154.57
2022-10-19T01:09:19.184Z,148.40
2022-10-19T01:12:15.252Z,147.93
2022-10-19T01:14:44.824Z,149.48
2022-10-19T01:17:39.588Z,147.65
2022-10-19T01:20:28.099Z,142.95
2022-10-19T01:22:54.661Z,143.00
2022-10-19T01:25:36.552Z,151.48
2022-10-19T01:28:03.165Z,148.40
2022-10-19T01:31:02.030Z,144.18
2022-10-19T01:33:34.586Z,157.60
2022-10-19T01:36:25.572Z,150.07
2022-10-19T01:39:13.402Z,155.38
2022-10-19T01:41:57.076Z,153.27
2022-10-19T01:44:34.572Z,145.68
2022-10-19T01:47:07.100Z,152.27
2022-10-19T01:50:18.108Z,151.07
2022-10-19T01:52:44.868Z,143.00
2022-10-19T01:55:14.840Z,142.38
2022-10-19T01:57:46.448Z,150.50
2022-10-19T02:00:16.543Z,142.40
2022-10-19T02:02:48.119Z,143.38
2022-10-19T02:05:18.858Z,146.32
2022-10-19T02:07:49.629Z,146.38
2022-10-19T02:10:16.381Z,142.48
2022-10-19T02:12:43.908Z,146.02
2022-10-19T02:15:16.849Z,152.48
2022-10-19T02:17:49.683Z,144.85
2022-10-19T02:20:17.388Z,146.25
2022-10-19T02:22:44.778Z,146.13
2022-10-19T02:25:12.022Z,146.90
2022-10-19T02:27:42.107Z,151.45
2022-10-19T02:30:11.034Z,145.40
2022-10-19T02:32:37.748Z,145.65
2022-10-19T02:35:05.133Z,155.25
2022-10-19T02:37:31.859Z,142.45
2022-10-19T02:39:58.693Z,151.65
2022-10-19T02:42:34.703Z,139.20
2022-10-19T02:45:11.852Z,148.60
2022-10-19T02:47:44.909Z,153.57
2022-10-19T02:50:12.018Z,143.48
2022-10-19T02:52:40.219Z,145.82
2022-10-19T02:55:07.977Z,151.95
2022-10-19T02:57:35.001Z,143.20
2022-10-19T03:00:03.985Z,150.00
2022-10-19T03:02:30.652Z,147.60
2022-10-19T03:04:57.385Z,143.93
2022-10-19T03:07:24.608Z,150.80
2022-10-19T03:09:51.361Z,143.90
2022-10-19T03:12:18.545Z,143.45
2022-10-19T03:14:45.192Z,150.73
2022-10-19T03:17:11.984Z,141.45
2022-10-19T03:19:38.807Z,150.52
2022-10-19T03:22:06.008Z,147.93
2022-10-19T03:24:33.640Z,139.85
2022-10-19T03:27:00.414Z,142.30
2022-10-19T03:29:27.109Z,153.18
2022-10-19T03:31:53.788Z,143.38
2022-10-19T03:34:20.420Z,145.43
2022-10-19T03:36:47.090Z,145.68
2022-10-19T03:39:15.546Z,140.30
2022-10-19T03:41:43.101Z,154.30
2022-10-19T03:44:10.855Z,142.52
2022-10-19T03:46:38.205Z,136.40
2022-10-19T03:49:05.396Z,146.55
2022-10-19T03:51:33.130Z,139.18
2022-10-19T03:54:13.014Z,149.07
2022-10-19T03:56:39.626Z,151.85
2022-10-19T03:59:07.100Z,146.45
2022-10-19T04:01:37.224Z,150.95
2022-10-19T04:04:07.691Z,143.35
2022-10-19T04:06:39.712Z,143.23
2022-10-19T04:09:08.128Z,149.38
2022-10-19T04:11:35.612Z,149.23
2022-10-19T04:14:02.906Z,141.57
2022-10-19T04:16:31.368Z,140.75
2022-10-19T04:18:58.811Z,142.73
2022-10-19T04:21:34.577Z,145.07
2022-10-19T04:24:06.968Z,141.38
2022-10-19T04:26:34.696Z,140.65
2022-10-19T04:29:01.871Z,143.70
2022-10-19T04:31:29.042Z,147.98
2022-10-19T04:33:56.391Z,149.85
2022-10-19T04:36:23.926Z,144.13
2022-10-19T04:38:50.809Z,146.25
2022-10-19T04:41:20.339Z,147.90
2022-10-19T04:43:47.892Z,141.52
2022-10-19T04:46:17.316Z,136.57
2022-10-19T04:48:45.208Z,144.25
2022-10-19T04:51:12.720Z,138.10
2022-10-19T04:53:41.313Z,141.52
2022-10-19T04:56:12.276Z,140.75
2022-10-19T04:58:38.911Z,147.82
2022-10-19T05:01:11.281Z,139.77
2022-10-19T05:03:38.667Z,140.00
2022-10-19T05:06:05.834Z,140.30
2022-10-19T05:08:33.699Z,138.60
2022-10-19T05:11:04.967Z,137.80
2022-10-19T05:13:33.020Z,149.93
2022-10-19T05:16:01.451Z,140.15
2022-10-19T05:18:28.962Z,152.45
2022-10-19T05:21:10.797Z,154.05
2022-10-19T05:23:38.190Z,143.70
2022-10-19T05:26:06.671Z,147.15
2022-10-19T05:28:34.306Z,138.90
2022-10-19T05:31:12.714Z,141.43
2022-10-19T05:33:40.355Z,161.20
2022-10-19T05:36:28.165Z,147.32
2022-10-19T05:38:56.797Z,139.10
2022-10-19T05:41:24.989Z,142.10
2022-10-19T05:44:00.186Z,138.63
2022-10-19T05:46:28.968Z,146.57
2022-10-19T05:48:57.329Z,139.82
2022-10-19T05:51:25.922Z,140.73
2022-10-19T05:53:53.960Z,153.98
2022-10-19T05:56:23.832Z,152.52
2022-10-19T05:58:51.076Z,168.52
2022-10-19T06:01:19.489Z,159.23
2022-10-19T06:03:47.388Z,154.30
2022-10-19T06:06:14.106Z,145.30
2022-10-19T06:08:40.760Z,140.98
2022-10-19T06:11:08.768Z,147.65
2022-10-19T06:13:36.402Z,157.32
2022-10-19T06:16:03.641Z,155.30
2022-10-19T06:18:30.337Z,139.13
2022-10-19T06:21:12.943Z,142.00
2022-10-19T06:23:40.129Z,140.85
2022-10-19T06:26:09.924Z,142.68
2022-10-19T06:28:38.673Z,141.35
2022-10-19T06:31:08.511Z,154.05
2022-10-19T06:33:36.732Z,143.90
2022-10-19T06:36:17.750Z,150.80
2022-10-19T06:38:44.930Z,150.77
2022-10-19T06:41:12.161Z,142.05
2022-10-19T06:43:39.357Z,151.95
2022-10-19T06:46:07.702Z,152.85
2022-10-19T06:48:34.690Z,143.27
2022-10-19T06:51:06.251Z,141.90
2022-10-19T06:53:34.464Z,143.13
2022-10-19T06:56:03.109Z,141.75
2022-10-19T06:58:30.874Z,144.93
2022-10-19T07:00:59.338Z,146.00
2022-10-19T07:03:29.218Z,156.68
2022-10-19T07:05:57.991Z,148.18
2022-10-19T07:08:26.343Z,146.45
2022-10-19T07:10:54.922Z,150.93
2022-10-19T07:13:22.697Z,155.18
2022-10-19T07:15:49.961Z,150.98
2022-10-19T07:18:16.832Z,149.05
2022-10-19T07:20:43.461Z,156.10
2022-10-19T07:23:10.080Z,147.90
2022-10-19T07:25:36.725Z,149.35
2022-10-19T07:28:04.210Z,148.85
2022-10-19T07:30:31.825Z,159.77
2022-10-19T07:32:58.449Z,151.95
2022-10-19T07:35:25.136Z,158.98
2022-10-19T07:37:51.758Z,152.55
2022-10-19T07:40:18.356Z,154.00
2022-10-19T07:42:44.941Z,163.50
2022-10-19T07:45:11.616Z,152.75
2022-10-19T07:47:38.465Z,154.73
2022-10-19T07:50:05.441Z,156.25
2022-10-19T07:52:36.019Z,168.73
2022-10-19T07:55:03.765Z,166.27
2022-10-19T07:57:30.335Z,157.40
2022-10-19T07:59:57.013Z,160.10
2022-10-19T08:02:30.777Z,155.65
2022-10-19T08:05:10.512Z,157.40
2022-10-19T08:07:37.215Z,164.07
2022-10-19T08:10:04.736Z,159.32
2022-10-19T08:12:31.431Z,165.73
2022-10-19T08:14:58.296Z,163.85
2022-10-19T08:17:24.986Z,156.52
2022-10-19T08:19:51.662Z,169.32
2022-10-19T08:22:18.251Z,165.90
2022-10-19T08:24:44.884Z,164.57
2022-10-19T08:27:11.569Z,156.27
2022-10-19T08:29:38.229Z,167.70
2022-10-19T08:32:05.154Z,174.13
2022-10-19T08:34:33.317Z,160.57
2022-10-19T08:37:06.798Z,166.38
2022-10-19T08:39:41.574Z,165.20
2022-10-19T08:42:23.564Z,168.02
2022-10-19T08:44:50.188Z,164.25
2022-10-19T08:47:23.181Z,159.40
2022-10-19T08:50:00.400Z,163.30
2022-10-19T08:52:34.220Z,156.13
2022-10-19T08:55:09.104Z,162.88
2022-10-19T08:57:47.978Z,170.52
2022-10-19T09:00:21.869Z,162.13
2022-10-19T09:03:27.141Z,155.88
2022-10-19T09:06:28.565Z,160.00
2022-10-19T09:08:57.138Z,155.80
2022-10-19T09:11:35.610Z,159.73
2022-10-19T09:14:13.831Z,163.43
2022-10-19T09:16:40.572Z,167.40
2022-10-19T09:19:25.275Z,159.68
2022-10-19T09:22:01.937Z,159.52
2022-10-19T09:24:29.404Z,162.00
2022-10-19T09:26:59.475Z,160.98
2022-10-19T09:29:33.554Z,160.00
2022-10-19T09:32:03.800Z,160.75
2022-10-19T09:34:36.537Z,161.43
2022-10-19T09:37:03.490Z,173.13
2022-10-19T09:39:31.074Z,164.07
2022-10-19T09:42:04.926Z,166.85
2022-10-19T09:44:32.439Z,168.07
2022-10-19T09:46:59.112Z,168.60
2022-10-19T09:49:43.178Z,169.00
2022-10-19T09:52:28.687Z,169.18
2022-10-19T09:55:27.604Z,173.63
2022-10-19T09:58:06.488Z,167.32
2022-10-19T10:00:39.800Z,163.40
2022-10-19T10:03:07.734Z,174.80
2022-10-19T10:05:39.803Z,177.20
2022-10-19T10:08:15.567Z,172.70
2022-10-19T10:13:24.543Z,172.05
2022-10-19T10:16:03.812Z,174.45
2022-10-19T10:18:30.502Z,178.13
2022-10-19T10:20:59.297Z,171.82
2022-10-19T10:23:29.529Z,173.50
2022-10-19T10:25:58.265Z,167.68
2022-10-19T10:28:27.948Z,171.35
2022-10-19T10:31:07.475Z,170.10
2022-10-19T10:33:44.648Z,171.88
2022-10-19T10:36:12.528Z,178.25
2022-10-19T10:38:47.428Z,167.32
2022-10-19T10:41:23.147Z,168.40
2022-10-19T10:46:42.569Z,175.40
2022-10-19T10:49:21.121Z,172.13
2022-10-19T10:51:53.157Z,162.50
2022-10-19T10:54:30.410Z,168.45
2022-10-19T10:57:06.787Z,173.65
2022-10-19T10:59:44.684Z,170.43
2022-10-19T11:02:30.387Z,175.60
2022-10-19T11:05:23.733Z,168.30
2022-10-19T11:07:56.720Z,159.13
2022-10-19T11:10:37.153Z,175.57
2022-10-19T11:13:22.453Z,175.35
2022-10-19T11:16:17.653Z,167.63
2022-10-19T11:18:57.036Z,174.95
2022-10-19T11:21:39.794Z,164.10
2022-10-19T11:24:22.918Z,166.68
2022-10-19T11:26:58.802Z,167.55
2022-10-19T11:29:37.590Z,169.90
2022-10-19T11:32:12.270Z,166.55
2022-10-19T11:35:19.856Z,170.48
2022-10-19T11:38:20.164Z,168.52
2022-10-19T11:41:13.161Z,170.68
2022-10-19T11:43:54.796Z,165.63
2022-10-19T11:46:24.338Z,167.40
2022-10-19T11:49:16.237Z,174.25
2022-10-19T11:52:07.769Z,167.38
2022-10-19T11:54:49.524Z,174.40
2022-10-19T11:57:36.634Z,175.95
2022-10-19T12:00:15.479Z,172.30
2022-10-19T12:03:04.039Z,177.07
2022-10-19T12:05:46.018Z,174.10
2022-10-19T12:08:31.715Z,171.32
2022-10-19T12:11:18.788Z,176.93
2022-10-19T12:13:52.944Z,178.50
2022-10-19T12:16:21.822Z,178.07
2022-10-19T12:18:55.475Z,172.65
2022-10-19T12:21:33.795Z,174.98
2022-10-19T12:24:04.107Z,171.68
2022-10-19T12:26:35.806Z,172.27
2022-10-19T12:29:06.852Z,175.43
2022-10-19T12:31:35.719Z,173.10
2022-10-19T12:34:05.068Z,169.35
2022-10-19T12:36:50.416Z,170.35
2022-10-19T12:39:41.877Z,175.00
2022-10-19T12:42:30.338Z,170.98
2022-10-19T12:45:25.307Z,167.50
2022-10-19T12:48:18.958Z,168.43
2022-10-19T12:50:48.604Z,175.23
2022-10-19T12:53:38.689Z,177.45
2022-10-19T12:56:13.781Z,169.05
2022-10-19T12:58:48.136Z,170.70
2022-10-19T13:01:25.816Z,165.48
2022-10-19T13:04:14.307Z,168.38
2022-10-19T13:06:46.261Z,169.63
2022-10-19T13:09:47.029Z,167.23
2022-10-19T13:12:16.311Z,166.52
2022-10-19T13:15:01.576Z,163.30
2022-10-19T13:17:37.409Z,167.57
2022-10-19T13:20:13.081Z,163.50
2022-10-19T13:22:40.476Z,165.63
2022-10-19T13:25:16.182Z,159.68
2022-10-19T13:27:44.629Z,164.60
2022-10-19T13:30:36.494Z,165.95
2022-10-19T13:33:35.026Z,167.02
2022-10-19T13:36:04.538Z,172.02
2022-10-19T13:38:54.393Z,170.00
2022-10-19T13:41:44.484Z,176.85
2022-10-19T13:44:15.257Z,170.07
2022-10-19T13:47:20.578Z,174.82
2022-10-19T13:49:50.187Z,172.77
2022-10-19T13:52:36.324Z,167.35
2022-10-19T13:55:03.096Z,173.05
2022-10-19T13:57:47.868Z,169.10
2022-10-19T14:00:22.457Z,175.02
2022-10-19T14:03:10.822Z,174.23
2022-10-19T14:05:47.752Z,170.40
2022-10-19T14:08:17.357Z,167.48
2022-10-19T14:11:00.573Z,166.75
2022-10-19T14:13:29.010Z,168.23
2022-10-19T14:15:57.860Z,174.40
2022-10-19T14:18:30.025Z,166.85
2022-10-19T14:21:05.161Z,166.35
2022-10-19T14:23:34.949Z,170.25
2022-10-19T14:26:04.725Z,170.63
2022-10-19T14:28:32.166Z,169.52
2022-10-19T14:31:08.337Z,171.32
2022-10-19T14:33:39.380Z,168.13
2022-10-19T14:36:08.034Z,165.60
2022-10-19T14:38:40.447Z,164.43
2022-10-19T14:41:19.861Z,170.15
2022-10-19T14:43:46.569Z,162.73
2022-10-19T14:46:15.734Z,163.82
2022-10-19T14:48:45.586Z,168.32
2022-10-19T14:51:38.212Z,164.50
2022-10-19T14:54:23.489Z,171.43
2022-10-19T14:57:01.457Z,170.43
2022-10-19T14:59:34.348Z,164.02
2022-10-19T15:02:05.508Z,171.38
2022-10-19T15:04:36.972Z,164.30
2022-10-19T15:07:13.710Z,166.85
2022-10-19T15:09:48.380Z,166.00
2022-10-19T15:12:22.244Z,167.68
2022-10-19T15:14:49.397Z,171.57
2022-10-19T15:17:27.198Z,171.73
2022-10-19T15:19:56.131Z,167.50
2022-10-19T15:22:32.217Z,175.00
2022-10-19T15:25:01.434Z,169.90
2022-10-19T15:27:45.482Z,168.95
2022-10-19T15:30:18.198Z,170.82
2022-10-19T15:32:48.463Z,167.88
2022-10-19T15:35:21.813Z,169.27
2022-10-19T15:37:50.145Z,173.77
2022-10-19T15:40:26.214Z,172.98
2022-10-19T15:42:52.995Z,164.32
2022-10-19T15:45:33.505Z,173.60
2022-10-19T15:48:22.057Z,168.13
2022-10-19T15:50:51.933Z,167.43
2022-10-19T15:53:19.906Z,173.82
2022-10-19T15:55:46.566Z,173.18
2022-10-19T15:58:14.282Z,172.50
2022-10-19T16:00:41.945Z,171.27
2022-10-19T16:03:09.358Z,172.18
2022-10-19T16:05:36.626Z,175.93
2022-10-19T16:08:03.737Z,165.65
2022-10-19T16:10:30.518Z,176.10
2022-10-19T16:12:57.195Z,169.82
2022-10-19T16:15:23.891Z,174.18
2022-10-19T16:17:57.751Z,168.68
2022-10-19T16:20:25.452Z,167.27
2022-10-19T16:22:52.842Z,177.18
2022-10-19T16:25:19.543Z,177.65
2022-10-19T16:27:46.650Z,169.75
2022-10-19T16:30:13.791Z,171.90
2022-10-19T16:32:43.518Z,169.88
2022-10-19T16:35:10.275Z,171.43
2022-10-19T16:37:37.371Z,172.75
2022-10-19T16:40:05.371Z,170.10
2022-10-19T16:42:32.609Z,170.63
2022-10-19T16:44:59.495Z,172.15
2022-10-19T16:47:26.227Z,169.40
2022-10-19T16:49:59.969Z,174.32
2022-10-19T16:52:28.318Z,169.27
2022-10-19T16:54:55.009Z,168.43
2022-10-19T16:57:21.608Z,170.98
2022-10-19T16:59:50.839Z,169.07
2022-10-19T17:02:18.559Z,169.05
2022-10-19T17:04:45.684Z,172.05
2022-10-19T17:07:13.453Z,174.07
2022-10-19T17:09:42.191Z,169.80
2022-10-19T17:12:10.360Z,171.02
2022-10-19T17:14:40.024Z,167.80
2022-10-19T17:17:07.234Z,170.07
2022-10-19T17:19:34.392Z,175.18
2022-10-19T17:22:02.933Z,172.55
2022-10-19T17:24:29.770Z,168.48
2022-10-19T17:26:56.795Z,172.23
2022-10-19T17:29:23.899Z,169.88
2022-10-19T17:31:51.041Z,173.52
2022-10-19T17:34:18.503Z,171.45
2022-10-19T17:36:46.077Z,175.02
2022-10-19T17:39:17.663Z,175.15
2022-10-19T17:41:48.638Z,178.32
2022-10-19T17:44:16.770Z,171.18
2022-10-19T17:46:43.846Z,171.57
2022-10-19T17:49:10.905Z,173.52
2022-10-19T17:51:37.826Z,170.45
2022-10-19T17:54:12.673Z,178.80
2022-10-19T17:56:40.026Z,176.75
2022-10-19T17:59:08.987Z,177.65
2022-10-19T18:01:37.139Z,173.55
2022-10-19T18:04:04.754Z,177.15
2022-10-19T18:06:33.758Z,167.88
2022-10-19T18:09:02.899Z,171.23
2022-10-19T18:11:32.453Z,170.50
2022-10-19T18:14:00.737Z,171.88
2022-10-19T18:16:30.428Z,169.65
2022-10-19T18:18:59.041Z,167.02
2022-10-19T18:21:29.010Z,181.85
2022-10-19T18:23:57.408Z,191.35
2022-10-19T18:26:26.794Z,182.95
2022-10-19T18:28:54.417Z,180.68
2022-10-19T18:31:29.853Z,177.93
2022-10-19T18:33:58.012Z,176.65
2022-10-19T18:36:24.767Z,171.70
2022-10-19T18:38:58.168Z,176.82
2022-10-19T18:41:25.621Z,170.32
2022-10-19T18:44:04.391Z,175.48
2022-10-19T18:46:32.910Z,175.20
2022-10-19T18:49:00.482Z,174.38
2022-10-19T18:51:27.587Z,171.45
2022-10-19T18:53:55.457Z,175.13
2022-10-19T18:56:23.138Z,172.48
2022-10-19T18:58:50.411Z,174.30
2022-10-19T19:01:28.117Z,176.57
2022-10-19T19:03:56.926Z,167.30
2022-10-19T19:06:25.913Z,163.45
2022-10-19T19:08:57.277Z,172.95
2022-10-19T19:11:31.746Z,175.23
2022-10-19T19:14:21.310Z,168.02
2022-10-19T19:16:48.084Z,177.23
2022-10-19T19:19:16.576Z,170.25
2022-10-19T19:21:44.565Z,169.65
2022-10-19T19:24:18.566Z,166.32
2022-10-19T19:26:49.374Z,166.25
2022-10-19T19:29:17.453Z,173.57
2022-10-19T19:31:44.469Z,166.27
2022-10-19T19:34:11.380Z,168.52
2022-10-19T19:39:14.420Z,167.43
2022-10-19T19:41:41.094Z,168.52
2022-10-19T19:44:07.760Z,168.38
2022-10-19T19:46:35.024Z,162.57
2022-10-19T19:49:03.956Z,167.18
2022-10-19T19:51:32.258Z,172.77
2022-10-19T19:53:59.767Z,171.95
2022-10-19T19:56:27.085Z,170.73
2022-10-19T19:58:56.008Z,163.57
2022-10-19T20:01:23.275Z,159.85
2022-10-19T20:03:50.086Z,160.98
2022-10-19T20:06:22.094Z,163.50
2022-10-19T20:08:51.913Z,157.83
2022-10-19T20:11:18.604Z,156.98
2022-10-19T20:13:45.900Z,153.68
2022-10-19T20:16:15.311Z,159.88
2022-10-19T20:18:45.095Z,167.50
2022-10-19T20:21:12.574Z,159.57
2022-10-19T20:23:39.259Z,159.18
2022-10-19T20:26:06.378Z,160.63
2022-10-19T20:28:33.679Z,167.23
2022-10-19T20:31:06.224Z,170.82
2022-10-19T20:33:35.102Z,165.73
2022-10-19T20:36:07.225Z,163.00
2022-10-19T20:38:34.925Z,161.88
2022-10-19T20:41:09.779Z,163.02
2022-10-19T20:43:37.442Z,165.32
2022-10-19T20:46:10.291Z,163.20
2022-10-19T20:48:37.118Z,161.68
2022-10-19T20:51:12.646Z,157.00
2022-10-19T20:53:39.767Z,157.90
2022-10-19T20:56:08.078Z,164.00
2022-10-19T20:58:37.169Z,157.13
2022-10-19T21:01:09.955Z,153.18
2022-10-19T21:03:37.053Z,151.93
2022-10-19T21:06:08.489Z,157.63
2022-10-19T21:08:36.257Z,157.77
2022-10-19T21:11:22.056Z,154.85
2022-10-19T21:13:52.355Z,162.98
2022-10-19T21:16:21.292Z,165.27
2022-10-19T21:18:49.362Z,157.40
2022-10-19T21:21:22.027Z,155.63
2022-10-19T21:23:51.285Z,163.27
2022-10-19T21:26:17.883Z,160.60
2022-10-19T21:28:49.455Z,165.52
2022-10-19T21:31:17.625Z,155.57
2022-10-19T21:33:44.575Z,167.13
2022-10-19T21:36:12.918Z,154.95
2022-10-19T21:38:39.883Z,153.52
2022-10-19T21:41:10.640Z,157.00
2022-10-19T21:43:37.342Z,156.63
2022-10-19T21:46:11.114Z,153.98
2022-10-19T21:48:37.948Z,156.23
2022-10-19T21:51:16.737Z,157.55
2022-10-19T21:53:44.007Z,164.98
2022-10-19T21:56:10.629Z,162.82
2022-10-19T21:58:37.215Z,161.43
2022-10-19T22:01:07.789Z,164.90
2022-10-19T22:03:34.789Z,158.13
2022-10-19T22:06:01.562Z,157.52
2022-10-19T22:08:30.281Z,157.73
2022-10-19T22:10:56.878Z,156.13
2022-10-19T22:13:23.493Z,157.55
2022-10-19T22:15:50.130Z,155.88
2022-10-19T22:18:16.733Z,155.68
2022-10-19T22:20:43.350Z,162.45
2022-10-19T22:23:09.977Z,156.93
2022-10-19T22:25:36.569Z,163.63
2022-10-19T22:28:03.380Z,162.80
2022-10-19T22:30:30.047Z,153.88
2022-10-19T22:32:56.839Z,158.27
2022-10-19T22:35:23.423Z,155.38
2022-10-19T22:37:50.045Z,155.02
2022-10-19T22:40:16.823Z,155.60
2022-10-19T22:43:40.009Z,156.93
2022-10-19T22:47:21.864Z,152.00
2022-10-19T22:51:04.092Z,153.10
2022-10-19T22:53:49.460Z,144.45
2022-10-19T22:56:16.107Z,149.23
2022-10-19T22:58:42.822Z,148.82
2022-10-19T23:01:12.438Z,150.77
2022-10-19T23:03:40.395Z,147.52
2022-10-19T23:06:12.913Z,158.20
2022-10-19T23:08:40.069Z,153.73
2022-10-19T23:11:06.816Z,142.85
2022-10-19T23:13:33.575Z,150.13
2022-10-19T23:16:00.239Z,144.15
2022-10-19T23:18:27.157Z,142.65
2022-10-19T23:20:58.367Z,152.75
2022-10-19T23:23:41.364Z,151.55
2022-10-19T23:26:14.268Z,149.00
2022-10-19T23:28:44.291Z,147.73
2022-10-19T23:31:26.646Z,150.48
2022-10-19T23:33:54.687Z,158.23
2022-10-19T23:36:27.223Z,140.23
2022-10-19T23:38:55.405Z,145.48
2022-10-19T23:41:22.474Z,141.48
2022-10-19T23:43:49.490Z,152.45
2022-10-19T23:46:16.274Z,151.73
2022-10-19T23:48:43.181Z,155.15
2022-10-19T23:51:12.504Z,147.30
2022-10-19T23:53:41.609Z,154.07
2022-10-19T23:56:11.939Z,145.23
2022-10-19T23:58:38.683Z,144.20
